Time;durP1;ratioP1;P1;durP2;ratioP2;P2;SDS_P1;SDS_P2;PMS_P1;PMS_P2;Temp;Humidity;BMP_temperature;BMP_pressure;BME280_temperature;BME280_humidity;BME280_pressure;Samples;Min_cycle;Max_cycle;Signal;HPM_P1;HPM_P2
2022/05/24 00:01:53;;;;;;;1.48;0.85;;;20.50;99.90;;;;;;5015358;28;20269;-63
2022/05/24 00:04:19;;;;;;;1.42;0.70;;;20.20;99.90;;;;;;5015211;28;20234;-62
2022/05/24 00:06:46;;;;;;;2.33;0.73;;;19.90;99.90;;;;;;5014867;28;20718;-63
2022/05/24 00:09:14;;;;;;;3.75;0.82;;;19.70;99.90;;;;;;5015225;28;20293;-63
2022/05/24 00:11:41;;;;;;;1.45;1.00;;;19.70;99.90;;;;;;5015205;28;20211;-63
2022/05/24 00:14:07;;;;;;;1.95;1.10;;;19.60;99.90;;;;;;5015247;28;20265;-63
2022/05/24 00:16:34;;;;;;;1.27;0.90;;;19.60;99.90;;;;;;5014724;28;20231;-63
2022/05/24 00:19:01;;;;;;;1.58;0.80;;;19.50;99.90;;;;;;5014660;28;20675;-63
2022/05/24 00:21:28;;;;;;;1.00;0.85;;;19.50;99.90;;;;;;5014801;28;20595;-63
2022/05/24 00:23:54;;;;;;;1.85;0.75;;;19.40;99.90;;;;;;5015111;28;20209;-62
2022/05/24 00:26:29;;;;;;;3.28;0.70;;;19.40;99.90;;;;;;5014856;28;20235;-63
2022/05/24 00:28:56;;;;;;;1.00;1.00;;;19.40;99.90;;;;;;5014718;28;20289;-63
2022/05/24 00:31:23;;;;;;;1.55;0.85;;;19.30;99.90;;;;;;5014939;28;20210;-62
2022/05/24 00:33:49;;;;;;;1.30;0.70;;;19.30;99.90;;;;;;5014491;28;20238;-62
2022/05/24 00:36:17;;;;;;;1.27;1.17;;;19.20;99.90;;;;;;5014716;28;20281;-63
2022/05/24 00:38:44;;;;;;;1.40;0.90;;;19.20;99.90;;;;;;5013553;28;20215;-63
2022/05/24 00:41:25;;;;;;;1.33;0.90;;;19.20;99.90;;;;;;5014537;28;20667;-63
2022/05/24 00:43:57;;;;;;;0.93;0.90;;;19.20;99.90;;;;;;5014550;28;20207;-62
2022/05/24 00:46:26;;;;;;;2.53;1.00;;;19.20;99.90;;;;;;5014168;28;20326;-62
2022/05/24 00:48:57;;;;;;;0.70;0.70;;;19.10;99.90;;;;;;5014324;28;20215;-64
2022/05/24 00:51:29;;;;;;;2.20;1.30;;;19.00;99.90;;;;;;5014590;28;20203;-63
2022/05/24 00:53:57;;;;;;;3.03;1.05;;;19.00;99.90;;;;;;5014344;28;20265;-63
2022/05/24 00:56:40;;;;;;;2.03;1.13;;;19.10;99.90;;;;;;5014237;28;20223;-63
2022/05/24 00:59:14;;;;;;;2.15;1.10;;;19.10;99.90;;;;;;5014390;28;20305;-62
2022/05/24 01:01:43;;;;;;;1.20;1.08;;;19.00;99.90;;;;;;5014325;28;20218;-62
2022/05/24 01:04:12;;;;;;;1.27;1.08;;;19.00;99.90;;;;;;5014299;28;20217;-63
2022/05/24 01:06:39;;;;;;;1.27;1.13;;;19.00;99.90;;;;;;5014036;28;20277;-63
2022/05/24 01:09:10;;;;;;;1.40;1.10;;;18.90;99.90;;;;;;5013852;28;20207;-63
2022/05/24 01:11:43;;;;;;;3.25;1.30;;;18.90;99.90;;;;;;5014152;28;20218;-63
2022/05/24 01:14:15;;;;;;;1.10;0.95;;;18.80;99.90;;;;;;5014108;28;20221;-63
2022/05/24 01:16:42;;;;;;;1.25;1.15;;;18.80;99.90;;;;;;5013773;28;20239;-62
2022/05/24 01:19:15;;;;;;;1.85;1.42;;;18.80;99.90;;;;;;5013713;28;20638;-62
2022/05/24 01:21:41;;;;;;;2.53;1.30;;;18.80;99.90;;;;;;5013712;28;20207;-65
2022/05/24 01:24:17;;;;;;;3.75;1.50;;;18.70;99.90;;;;;;5013908;28;20218;-63
2022/05/24 01:26:50;;;;;;;2.15;1.58;;;18.70;99.90;;;;;;5013714;28;20593;-62
2022/05/24 01:29:18;;;;;;;1.92;1.77;;;18.80;99.90;;;;;;5013642;28;20235;-63
2022/05/24 01:37:15;;;;;;;2.58;1.38;;;18.70;99.90;;;;;;5013609;28;20729;-63
2022/05/24 01:39:45;;;;;;;4.97;1.40;;;18.60;99.90;;;;;;5014041;28;20211;-63
2022/05/24 01:42:14;;;;;;;1.92;1.40;;;18.60;99.90;;;;;;5013814;28;20655;-63
2022/05/24 01:44:46;;;;;;;1.42;1.33;;;18.70;99.90;;;;;;5013164;28;20215;-64
2022/05/24 01:47:14;;;;;;;1.40;1.30;;;18.70;99.90;;;;;;5013378;28;20210;-64
2022/05/24 01:49:45;;;;;;;2.40;1.65;;;18.70;99.90;;;;;;5013506;28;20218;-63
2022/05/24 01:52:15;;;;;;;4.10;1.70;;;18.70;99.90;;;;;;5013682;28;20322;-63
2022/05/24 01:54:45;;;;;;;1.50;1.38;;;18.70;99.90;;;;;;5013314;28;20211;-63
2022/05/24 01:57:16;;;;;;;2.28;1.70;;;18.70;99.90;;;;;;5013085;28;20317;-64
2022/05/24 01:59:45;;;;;;;2.83;1.70;;;18.70;99.90;;;;;;5013303;28;20207;-65
2022/05/24 02:02:12;;;;;;;1.95;1.75;;;18.60;99.90;;;;;;5013324;28;20219;-64
2022/05/24 02:04:39;;;;;;;3.13;1.67;;;18.70;99.90;;;;;;5012837;28;20714;-64
2022/05/24 02:07:09;;;;;;;1.83;1.67;;;18.70;99.90;;;;;;5012727;28;20210;-63
2022/05/24 02:09:44;;;;;;;1.80;1.55;;;18.60;99.90;;;;;;5013003;28;20218;-64
2022/05/24 02:12:17;;;;;;;2.25;1.83;;;18.50;99.90;;;;;;5013137;28;20206;-63
2022/05/24 02:14:48;;;;;;;2.40;1.45;;;18.50;99.90;;;;;;5012774;28;20207;-64
2022/05/24 02:17:18;;;;;;;4.25;1.50;;;18.50;99.90;;;;;;5012797;28;20211;-64
2022/05/24 02:19:55;;;;;;;4.13;1.50;;;18.50;99.90;;;;;;5012889;28;20226;-63
2022/05/24 02:22:24;;;;;;;3.38;1.95;;;18.50;99.90;;;;;;5012567;28;20217;-63
2022/05/24 02:24:59;;;;;;;1.80;1.70;;;18.40;99.90;;;;;;5012614;28;20211;-63
2022/05/24 02:27:28;;;;;;;2.40;1.58;;;18.40;99.90;;;;;;5012240;28;20206;-63
2022/05/24 02:29:55;;;;;;;1.63;1.50;;;18.40;99.90;;;;;;5012437;28;20671;-63
2022/05/24 02:32:23;;;;;;;1.75;1.60;;;18.40;99.90;;;;;;5012623;28;20234;-64
2022/05/24 02:34:49;;;;;;;2.60;1.90;;;18.40;99.90;;;;;;5012493;28;20218;-63
2022/05/24 02:37:16;;;;;;;2.15;1.88;;;18.40;99.90;;;;;;5012502;28;20244;-63
2022/05/24 02:42:29;;;;;;;2.17;1.92;;;18.30;99.90;;;;;;5012728;28;20210;-63
2022/05/24 02:44:56;;;;;;;1.95;1.75;;;18.30;99.90;;;;;;5012155;28;20729;-64
2022/05/24 02:47:23;;;;;;;3.22;2.00;;;18.20;99.90;;;;;;5012071;28;20207;-64
2022/05/24 02:49:49;;;;;;;2.58;1.92;;;18.10;99.90;;;;;;5012488;28;20218;-64
2022/05/24 02:52:16;;;;;;;2.30;2.10;;;18.00;99.90;;;;;;5012437;28;20214;-63
2022/05/24 02:54:43;;;;;;;2.00;1.90;;;17.90;99.90;;;;;;5012323;28;20214;-63
2022/05/24 02:57:10;;;;;;;2.47;1.90;;;17.80;99.90;;;;;;5012035;28;20234;-64
2022/05/24 02:59:38;;;;;;;2.20;2.00;;;17.70;99.90;;;;;;5012332;28;20207;-64
2022/05/24 03:02:05;;;;;;;2.08;1.85;;;17.50;99.90;;;;;;5011648;28;20207;-64
2022/05/24 03:04:32;;;;;;;3.22;1.77;;;17.40;99.90;;;;;;5012271;28;20223;-64
2022/05/24 03:09:43;;;;;;;2.00;1.80;;;17.20;99.90;;;;;;5012179;28;20213;-64
2022/05/24 03:14:57;;;;;;;1.80;1.63;;;17.10;99.90;;;;;;5012111;28;20221;-63
2022/05/24 03:17:24;;;;;;;3.15;2.13;;;17.10;99.90;;;;;;5011845;28;20206;-63
2022/05/24 03:19:52;;;;;;;2.05;1.85;;;16.90;99.90;;;;;;5011796;28;20219;-63
2022/05/24 03:22:18;;;;;;;3.58;1.77;;;16.90;99.90;;;;;;5011988;28;20741;-63
2022/05/24 03:24:45;;;;;;;2.50;2.30;;;16.80;99.90;;;;;;5011758;28;20207;-63
2022/05/24 03:27:13;;;;;;;3.30;3.00;;;16.80;99.90;;;;;;5011721;28;20227;-63
2022/05/24 03:29:41;;;;;;;3.47;2.72;;;16.90;99.90;;;;;;5012062;28;20261;-63
2022/05/24 03:32:10;;;;;;;2.78;2.50;;;17.00;99.90;;;;;;5011978;28;20260;-63
2022/05/24 03:34:38;;;;;;;3.60;2.22;;;17.00;99.90;;;;;;5011626;28;20896;-63
2022/05/24 03:37:05;;;;;;;2.30;2.08;;;17.10;99.90;;;;;;5011929;28;20233;-63
2022/05/24 03:39:32;;;;;;;4.07;2.22;;;17.10;99.90;;;;;;5011731;28;20206;-64
2022/05/24 03:41:58;;;;;;;4.53;3.58;;;17.10;99.90;;;;;;5011560;28;20625;-63
2022/05/24 03:44:25;;;;;;;6.53;3.90;;;17.10;99.90;;;;;;5011828;28;20211;-64
2022/05/24 03:46:52;;;;;;;2.53;2.10;;;17.20;99.90;;;;;;5011768;28;20648;-64
2022/05/24 03:49:20;;;;;;;3.40;2.30;;;17.20;99.90;;;;;;5011591;28;20211;-64
2022/05/24 03:51:47;;;;;;;2.57;1.90;;;17.30;99.90;;;;;;5011648;28;20215;-64
2022/05/24 03:54:14;;;;;;;3.85;2.08;;;17.40;99.90;;;;;;5012000;28;20218;-64
2022/05/24 03:57:59;;;;;;;4.38;1.75;;;17.40;99.90;;;;;;5011529;28;20729;-63
2022/05/24 03:59:29;;;;;;;2.33;1.80;;;17.50;99.90;;;;;;5011219;28;20206;-63
2022/05/24 04:01:56;;;;;;;2.60;2.40;;;17.50;99.90;;;;;;5011558;28;20560;-63
2022/05/24 04:04:24;;;;;;;3.05;2.22;;;17.50;99.90;;;;;;5011395;28;20233;-63
2022/05/24 04:06:50;;;;;;;6.82;4.10;;;17.60;99.90;;;;;;5011551;28;20238;-64
2022/05/24 04:09:17;;;;;;;4.57;3.25;;;17.60;99.90;;;;;;5011494;28;20214;-64
2022/05/24 04:11:44;;;;;;;2.20;1.92;;;17.60;99.90;;;;;;5011533;28;20207;-64
2022/05/24 04:14:10;;;;;;;5.78;2.10;;;17.80;99.90;;;;;;5012361;28;20218;-64
2022/05/24 04:16:38;;;;;;;4.15;2.20;;;17.80;99.90;;;;;;5015015;28;20313;-63
2022/05/24 04:19:05;;;;;;;3.58;2.58;;;17.90;99.90;;;;;;5014950;28;20265;-63
2022/05/24 04:21:33;;;;;;;3.67;1.80;;;17.90;99.90;;;;;;5015080;28;20241;-63
2022/05/24 04:24:00;;;;;;;1.67;1.58;;;17.90;99.90;;;;;;5015056;28;20288;-63
2022/05/24 04:26:27;;;;;;;1.58;1.48;;;17.90;99.90;;;;;;5014566;28;20713;-64
2022/05/24 04:28:53;;;;;;;5.28;1.75;;;17.80;99.90;;;;;;5014859;28;20218;-63
2022/05/24 04:31:20;;;;;;;2.92;1.48;;;17.80;99.90;;;;;;5014727;28;20211;-63
2022/05/24 04:33:47;;;;;;;2.85;1.30;;;17.70;99.90;;;;;;5014905;28;20237;-64
2022/05/24 04:36:13;;;;;;;3.55;1.60;;;17.70;99.90;;;;;;5014746;28;20234;-63
2022/05/24 04:38:42;;;;;;;10.15;2.83;;;17.60;99.90;;;;;;5014477;28;20207;-63
2022/05/24 04:43:54;;;;;;;1.63;1.50;;;17.60;99.90;;;;;;5014739;28;20202;-63
2022/05/24 04:46:21;;;;;;;2.42;1.95;;;17.80;99.90;;;;;;5014076;28;20679;-63
2022/05/24 04:48:47;;;;;;;2.83;1.60;;;17.90;99.90;;;;;;5014204;28;20218;-63
2022/05/24 04:51:14;;;;;;;3.13;1.85;;;18.10;99.90;;;;;;5014496;28;20211;-63
2022/05/24 04:53:42;;;;;;;1.60;1.50;;;18.20;99.90;;;;;;5014410;28;20705;-62
2022/05/24 04:56:09;;;;;;;5.13;1.52;;;18.20;99.90;;;;;;5014180;28;20230;-62
2022/05/24 04:58:36;;;;;;;1.85;1.45;;;18.20;99.90;;;;;;5013893;28;20215;-62
2022/05/24 05:01:03;;;;;;;4.32;1.73;;;18.30;99.90;;;;;;5014088;28;20285;-64
2022/05/24 05:03:29;;;;;;;1.98;1.70;;;18.30;99.90;;;;;;5014249;28;20202;-63
2022/05/24 05:05:56;;;;;;;3.55;1.80;;;18.20;99.90;;;;;;5013798;28;20227;-65
2022/05/24 05:08:24;;;;;;;4.82;2.17;;;18.20;99.90;;;;;;5013763;28;20642;-64
2022/05/24 05:10:53;;;;;;;5.15;1.88;;;18.10;99.90;;;;;;5013674;28;20207;-63
2022/05/24 05:13:20;;;;;;;2.58;1.60;;;18.00;99.90;;;;;;5013766;28;20663;-63
2022/05/24 05:15:46;;;;;;;3.03;1.58;;;18.00;99.90;;;;;;5030778;23;20227;-63
2022/05/24 05:18:15;;;;;;;2.28;1.58;;;18.10;99.90;;;;;;4993972;28;20664;-61
2022/05/24 05:20:43;;;;;;;3.95;1.83;;;18.30;99.90;;;;;;4994370;28;20621;-62
2022/05/24 05:23:11;;;;;;;3.50;1.75;;;18.40;99.90;;;;;;4994397;28;20222;-62
2022/05/24 05:25:39;;;;;;;2.28;1.73;;;18.50;99.90;;;;;;4993361;28;20250;-61
2022/05/24 05:28:07;;;;;;;2.40;1.67;;;18.60;99.90;;;;;;4994205;28;20671;-61
2022/05/24 05:33:18;;;;;;;2.70;1.67;;;18.70;99.90;;;;;;4993249;28;20206;-60
2022/05/24 05:35:46;;;;;;;2.55;1.52;;;18.90;99.90;;;;;;4992614;28;20650;-61
2022/05/24 05:38:13;;;;;;;2.10;1.48;;;19.10;99.90;;;;;;4992967;28;20306;-61
2022/05/24 05:40:41;;;;;;;5.78;2.38;;;19.30;99.90;;;;;;4992459;28;20695;-61
2022/05/24 05:43:09;;;;;;;1.77;1.30;;;19.40;99.90;;;;;;4992902;28;20207;-60
2022/05/24 05:45:36;;;;;;;1.42;1.27;;;19.60;99.90;;;;;;4992646;28;20791;-60
2022/05/24 05:48:03;;;;;;;1.38;1.20;;;19.70;99.90;;;;;;4992037;28;20322;-60
2022/05/24 05:50:30;;;;;;;2.25;1.20;;;20.10;99.90;;;;;;4992314;28;20214;-60
2022/05/24 05:52:56;;;;;;;1.73;1.20;;;20.50;99.90;;;;;;4993134;28;20208;-61
2022/05/24 05:55:24;;;;;;;1.55;1.10;;;20.70;99.90;;;;;;4992673;28;20227;-61
2022/05/24 05:57:51;;;;;;;3.00;1.30;;;21.00;99.90;;;;;;4992470;28;20679;-61
2022/05/24 06:00:19;;;;;;;1.90;1.15;;;21.20;99.90;;;;;;4992763;28;20203;-61
2022/05/24 06:02:47;;;;;;;2.70;1.20;;;21.30;99.90;;;;;;4992699;28;20588;-60
2022/05/24 06:05:14;;;;;;;1.30;1.00;;;21.50;99.90;;;;;;4992910;28;20294;-60
2022/05/24 06:07:40;;;;;;;2.47;1.15;;;21.90;99.90;;;;;;4992491;28;20227;-60
2022/05/24 06:10:09;;;;;;;4.72;1.08;;;22.10;99.90;;;;;;4992607;28;20265;-61
2022/05/24 06:12:36;;;;;;;2.15;1.40;;;22.20;99.90;;;;;;4992085;28;20265;-61
2022/05/24 06:15:04;;;;;;;1.63;0.90;;;22.30;99.90;;;;;;4992397;28;20262;-62
2022/05/24 06:17:32;;;;;;;5.13;3.45;;;22.40;99.90;;;;;;4991851;28;20215;-62
2022/05/24 06:20:00;;;;;;;1.00;0.80;;;22.60;99.90;;;;;;4991950;28;20680;-62
2022/05/24 06:22:26;;;;;;;1.77;0.90;;;23.40;99.90;;;;;;4992275;28;20235;-60
2022/05/24 06:24:53;;;;;;;1.58;1.00;;;24.90;99.90;;;;;;4991943;28;20266;-61
2022/05/24 06:27:21;;;;;;;3.78;0.80;;;27.30;99.90;;;;;;4991881;28;20235;-60
2022/05/24 06:29:48;;;;;;;3.10;0.93;;;29.80;99.90;;;;;;4991685;28;20298;-60
2022/05/24 06:32:15;;;;;;;1.65;0.82;;;31.40;98.30;;;;;;4991988;28;20212;-61
2022/05/24 06:34:43;;;;;;;1.67;0.85;;;31.40;96.10;;;;;;4992073;28;20210;-60
2022/05/24 06:37:10;;;;;;;1.35;0.98;;;30.90;94.70;;;;;;4990779;28;20234;-60
2022/05/24 06:39:36;;;;;;;2.15;1.38;;;29.90;94.90;;;;;;4991618;28;20214;-60
2022/05/24 06:42:03;;;;;;;1.92;0.93;;;28.70;96.50;;;;;;4991574;28;20212;-60
2022/05/24 06:44:30;;;;;;;1.80;0.80;;;27.80;98.20;;;;;;4991668;28;20273;-62
2022/05/24 06:46:57;;;;;;;6.32;1.27;;;27.00;99.80;;;;;;4991951;28;20231;-60
2022/05/24 06:49:23;;;;;;;3.40;1.13;;;26.50;99.90;;;;;;4991541;28;20207;-60
2022/05/24 06:51:51;;;;;;;3.17;1.30;;;26.20;99.90;;;;;;4991687;28;20215;-60
2022/05/24 06:54:18;;;;;;;2.58;1.30;;;25.80;99.90;;;;;;4991793;28;20210;-60
2022/05/24 06:56:45;;;;;;;3.45;1.13;;;25.40;99.90;;;;;;4991044;28;20263;-60
2022/05/24 07:04:40;;;;;;;4.60;1.25;;;24.20;99.90;;;;;;4991956;28;20289;-60
2022/05/24 07:07:08;;;;;;;5.05;1.40;;;24.00;99.90;;;;;;4991269;28;20573;-60
2022/05/24 07:09:35;;;;;;;4.22;1.88;;;23.70;99.90;;;;;;4991450;28;20207;-60
2022/05/24 07:12:02;;;;;;;2.75;1.58;;;23.50;99.90;;;;;;4991203;28;20215;-60
2022/05/24 07:14:29;;;;;;;2.67;1.15;;;23.20;99.90;;;;;;4991112;28;20667;-61
2022/05/24 07:16:56;;;;;;;4.80;0.93;;;23.00;99.90;;;;;;4991296;28;20322;-60
2022/05/24 07:19:24;;;;;;;2.92;0.85;;;22.40;99.90;;;;;;4991619;28;20216;-61
2022/05/24 07:21:51;;;;;;;2.63;0.70;;;21.40;99.90;;;;;;4991339;28;20535;-61
2022/05/24 07:24:19;;;;;;;3.33;0.90;;;20.20;99.90;;;;;;4991256;28;20621;-60
2022/05/24 07:26:46;;;;;;;3.60;0.60;;;19.40;99.90;;;;;;4991173;28;20240;-60
2022/05/24 07:29:13;;;;;;;4.68;0.68;;;18.70;99.90;;;;;;4991300;28;20204;-61
2022/05/24 07:31:39;;;;;;;1.35;0.63;;;18.30;99.90;;;;;;4991278;28;20241;-62
2022/05/24 07:34:06;;;;;;;2.03;0.55;;;18.00;99.90;;;;;;4991121;28;20587;-61
2022/05/24 07:36:33;;;;;;;2.60;0.63;;;17.80;99.90;;;;;;4991428;28;20227;-61
2022/05/24 07:39:00;;;;;;;1.35;0.57;;;17.70;99.90;;;;;;4990962;28;20239;-61
2022/05/24 07:46:56;;;;;;;3.10;0.60;;;17.70;99.90;;;;;;4991104;28;20235;-59
2022/05/24 07:49:23;;;;;;;4.10;1.38;;;17.60;99.90;;;;;;4993420;28;20298;-62
2022/05/24 07:51:50;;;;;;;1.75;0.77;;;17.60;99.90;;;;;;4995139;28;20290;-60
2022/05/24 07:54:16;;;;;;;2.00;0.60;;;17.60;99.90;;;;;;4995207;28;20211;-60
2022/05/24 07:56:45;;;;;;;3.95;0.80;;;17.70;99.90;;;;;;4994861;28;20277;-60
2022/05/24 07:59:12;;;;;;;4.47;1.42;;;17.80;99.90;;;;;;4994566;28;20212;-60
2022/05/24 08:01:40;;;;;;;4.70;0.90;;;17.90;99.90;;;;;;4994188;28;20207;-60
2022/05/24 08:04:07;;;;;;;5.47;0.80;;;18.20;99.90;;;;;;4995283;28;20207;-60
2022/05/24 08:06:33;;;;;;;5.90;0.70;;;18.50;99.90;;;;;;4994734;28;20235;-62
2022/05/24 08:09:00;;;;;;;1.85;1.02;;;18.80;99.90;;;;;;4994723;28;20211;-60
2022/05/24 08:11:27;;;;;;;2.08;0.70;;;19.20;99.90;;;;;;4994840;28;20211;-63
2022/05/24 08:13:58;;;;;;;1.35;1.05;;;19.80;99.90;;;;;;4994455;28;20211;-60
2022/05/24 08:16:26;;;;;;;1.75;0.75;;;20.40;99.90;;;;;;4994316;28;20325;-60
2022/05/24 08:18:53;;;;;;;1.05;0.55;;;20.80;99.90;;;;;;4994047;28;20730;-60
2022/05/24 08:21:20;;;;;;;3.75;0.93;;;20.90;99.90;;;;;;4994415;28;20239;-60
2022/05/24 08:23:47;;;;;;;0.95;0.45;;;20.80;99.90;;;;;;4994621;28;20211;-59
2022/05/24 08:26:14;;;;;;;2.25;0.60;;;20.70;99.90;;;;;;4994209;28;20238;-61
2022/05/24 08:28:41;;;;;;;1.10;0.60;;;20.80;99.90;;;;;;4993695;28;20231;-61
2022/05/24 08:31:10;;;;;;;1.30;0.50;;;21.10;99.90;;;;;;4993923;28;20684;-61
2022/05/24 08:33:37;;;;;;;0.68;0.50;;;21.50;99.90;;;;;;4994287;28;20672;-61
2022/05/24 08:36:04;;;;;;;0.85;0.40;;;21.60;99.90;;;;;;4994117;28;20227;-61
2022/05/24 08:38:31;;;;;;;1.13;0.40;;;21.60;99.90;;;;;;4993678;28;20274;-60
2022/05/24 08:41:07;;;;;;;4.22;0.75;;;21.80;99.90;;;;;;4993631;28;20294;-61
2022/05/24 08:43:51;;;;;;;1.08;0.40;;;21.90;99.90;;;;;;4993915;28;20211;-64
2022/05/24 08:49:14;;;;;;;1.92;0.40;;;22.10;99.90;;;;;;4993739;28;20687;-65
2022/05/24 08:51:45;;;;;;;1.67;0.30;;;22.30;99.90;;;;;;4993498;28;20299;-64
2022/05/24 08:54:13;;;;;;;0.75;0.45;;;22.50;99.90;;;;;;4994045;28;20269;-61
2022/05/24 08:56:47;;;;;;;1.50;0.40;;;22.70;99.90;;;;;;4993772;28;20270;-63
2022/05/24 08:59:19;;;;;;;1.40;0.55;;;22.90;99.90;;;;;;4992815;28;20733;-60
2022/05/24 09:01:49;;;;;;;0.73;0.70;;;23.20;99.90;;;;;;4993086;28;20235;-61
2022/05/24 09:04:16;;;;;;;1.65;0.40;;;23.40;99.90;;;;;;4993287;28;20215;-61
2022/05/24 09:06:47;;;;;;;0.60;0.35;;;23.70;99.90;;;;;;4993610;28;20231;-63
2022/05/24 09:09:27;;;;;;;1.55;0.77;;;24.10;99.90;;;;;;4993472;28;20278;-62
2022/05/24 09:12:09;;;;;;;0.32;0.25;;;24.50;99.90;;;;;;4993020;28;20258;-62
2022/05/24 09:14:44;;;;;;;1.50;0.28;;;24.70;99.90;;;;;;4992975;28;20286;-63
2022/05/24 09:17:23;;;;;;;0.80;0.30;;;24.90;99.90;;;;;;4981034;28;20706;-64
2022/05/24 09:19:50;;;;;;;1.40;0.50;;;25.10;99.90;;;;;;4993379;28;20277;-62
2022/05/24 09:22:21;;;;;;;3.10;0.70;;;25.10;99.90;;;;;;4993480;28;20208;-62
2022/05/24 09:24:53;;;;;;;1.35;0.40;;;25.00;98.00;;;;;;4993778;28;20687;-63
2022/05/24 09:27:22;;;;;;;0.75;0.30;;;25.10;97.30;;;;;;4992851;28;20268;-63
2022/05/24 09:29:56;;;;;;;1.10;0.47;;;25.00;97.10;;;;;;4993342;28;20594;-64
2022/05/24 09:32:35;;;;;;;1.10;0.38;;;25.00;96.60;;;;;;4993777;28;20223;-64
2022/05/24 09:35:19;;;;;;;0.85;0.40;;;24.80;96.80;;;;;;4993306;28;20294;-64
2022/05/24 09:37:48;;;;;;;1.40;0.40;;;24.80;95.90;;;;;;4992848;28;20564;-64
2022/05/24 09:40:19;;;;;;;3.03;0.43;;;24.80;94.80;;;;;;4992655;28;20702;-66
2022/05/24 09:42:46;;;;;;;0.70;0.20;;;25.00;95.90;;;;;;4992905;28;20275;-64
2022/05/24 09:45:16;;;;;;;1.63;0.45;;;25.10;95.30;;;;;;4993026;28;20252;-65
2022/05/24 09:47:55;;;;;;;0.95;0.47;;;25.00;95.20;;;;;;4992490;28;20231;-64
2022/05/24 09:50:26;;;;;;;1.98;0.60;;;24.80;95.80;;;;;;4992581;28;20215;-64
2022/05/24 09:53:15;;;;;;;2.92;0.50;;;24.70;94.30;;;;;;4992654;28;20218;-65
2022/05/24 09:55:46;;;;;;;1.83;0.40;;;24.40;94.50;;;;;;4987640;28;20234;-64
2022/05/24 09:58:24;;;;;;;1.42;0.30;;;24.20;94.60;;;;;;4992097;28;20212;-65
2022/05/24 10:00:53;;;;;;;0.88;0.60;;;23.90;95.40;;;;;;4992203;28;20647;-65
2022/05/24 10:03:26;;;;;;;1.20;0.55;;;23.70;95.30;;;;;;4992441;28;20258;-64
2022/05/24 10:06:20;;;;;;;1.65;0.38;;;23.60;96.10;;;;;;4992228;28;20264;-65
2022/05/24 10:08:48;;;;;;;1.13;0.50;;;23.60;96.40;;;;;;4992103;28;20696;-64
2022/05/24 10:11:26;;;;;;;1.55;0.40;;;23.50;96.30;;;;;;4991773;28;20211;-65
2022/05/24 10:14:14;;;;;;;0.65;0.43;;;23.40;95.40;;;;;;4992360;28;20215;-64
2022/05/24 10:16:46;;;;;;;0.60;0.47;;;23.30;94.70;;;;;;4988595;28;20716;-64
2022/05/24 10:19:34;;;;;;;0.88;0.60;;;23.10;94.40;;;;;;4992083;28;20215;-64
2022/05/24 10:22:06;;;;;;;0.98;0.50;;;23.10;94.30;;;;;;4992435;28;20208;-63
2022/05/24 10:24:48;;;;;;;0.10;0.10;;;23.00;94.70;;;;;;4992334;28;20213;-63
2022/05/24 10:27:25;;;;;;;2.58;0.95;;;23.00;94.20;;;;;;4992292;28;20239;-64
2022/05/24 10:29:58;;;;;;;1.58;0.90;;;22.90;94.60;;;;;;4990950;28;20211;-64
2022/05/24 10:38:24;;;;;;;1.75;0.80;;;22.50;95.00;;;;;;4991744;28;20210;-61
2022/05/24 10:41:05;;;;;;;1.08;0.50;;;22.50;93.70;;;;;;4992011;28;20219;-64
2022/05/24 10:43:51;;;;;;;2.22;0.88;;;22.60;93.60;;;;;;4991678;28;20207;-61
2022/05/24 10:46:22;;;;;;;1.13;0.80;;;22.60;93.90;;;;;;4991852;28;20227;-62
2022/05/24 10:49:01;;;;;;;0.77;0.40;;;22.50;93.50;;;;;;4992255;28;20243;-62
2022/05/24 10:51:36;;;;;;;0.93;0.73;;;22.30;92.70;;;;;;4992118;28;20306;-63
2022/05/24 10:54:10;;;;;;;1.23;0.50;;;22.20;93.50;;;;;;4991942;28;20215;-62
2022/05/24 10:56:44;;;;;;;1.90;0.40;;;22.20;93.00;;;;;;4991435;28;20227;-62
2022/05/24 10:59:21;;;;;;;0.95;0.50;;;22.10;92.90;;;;;;4991616;28;20210;-62
2022/05/24 11:01:54;;;;;;;1.00;0.63;;;22.00;93.20;;;;;;4991146;28;20769;-62
2022/05/24 11:04:27;;;;;;;0.68;0.35;;;21.90;93.20;;;;;;4992128;28;20199;-65
2022/05/24 11:07:03;;;;;;;5.07;0.60;;;22.20;93.10;;;;;;4991679;28;20322;-67
2022/05/24 11:09:32;;;;;;;2.67;0.55;;;22.70;92.40;;;;;;4991508;28;20226;-62
2022/05/24 11:12:04;;;;;;;1.30;0.80;;;23.40;93.20;;;;;;4990913;28;20576;-66
2022/05/24 11:14:37;;;;;;;0.90;0.40;;;23.80;91.60;;;;;;4991815;28;20211;-61
2022/05/24 11:17:05;;;;;;;0.55;0.40;;;24.00;91.20;;;;;;5028684;23;20357;-58
2022/05/24 11:19:36;;;;;;;4.97;0.57;;;23.80;89.00;;;;;;5010737;28;20582;-60
2022/05/24 11:22:10;;;;;;;3.88;0.70;;;23.70;90.10;;;;;;5010916;28;20700;-59
2022/05/24 11:24:45;;;;;;;1.52;0.70;;;23.50;90.40;;;;;;5014120;28;20736;-61
2022/05/24 11:27:15;;;;;;;1.45;0.63;;;23.40;90.40;;;;;;5014280;28;20234;-61
2022/05/24 11:29:47;;;;;;;3.70;0.68;;;23.40;90.20;;;;;;5013432;28;20261;-61
2022/05/24 11:32:29;;;;;;;1.38;0.60;;;23.70;89.10;;;;;;5012905;28;20234;-62
2022/05/24 11:34:59;;;;;;;0.68;0.35;;;23.90;90.20;;;;;;5014743;28;20622;-61
2022/05/24 11:37:31;;;;;;;3.95;0.50;;;24.10;87.40;;;;;;5013275;28;20297;-58
2022/05/24 11:40:33;;;;;;;0.38;0.30;;;24.20;89.40;;;;;;5013989;28;20202;-62
2022/05/24 11:43:02;;;;;;;0.20;0.20;;;24.00;89.10;;;;;;5014147;28;20261;-63
2022/05/24 11:45:53;;;;;;;2.50;0.50;;;24.00;85.50;;;;;;5014536;28;20211;-64
2022/05/24 11:48:20;;;;;;;1.27;0.43;;;24.00;86.10;;;;;;5014440;28;20219;-62
2022/05/24 11:50:48;;;;;;;0.93;0.57;;;24.10;86.50;;;;;;5013644;28;20214;-63
2022/05/24 11:53:34;;;;;;;1.63;0.60;;;24.40;85.40;;;;;;5013747;28;20222;-61
2022/05/24 11:56:21;;;;;;;1.85;0.30;;;24.90;84.10;;;;;;5013119;28;20234;-63
2022/05/24 11:58:58;;;;;;;2.33;0.47;;;25.20;83.50;;;;;;5014343;28;20203;-64
2022/05/24 12:01:50;;;;;;;1.15;0.50;;;25.40;84.40;;;;;;5014161;28;20218;-63
2022/05/24 12:10:47;;;;;;;0.95;0.40;;;24.70;84.30;;;;;;5013987;28;20210;-64
2022/05/24 12:13:38;;;;;;;2.35;0.60;;;24.20;85.20;;;;;;5014243;28;20675;-63
2022/05/24 12:16:09;;;;;;;1.52;0.55;;;24.20;82.70;;;;;;5013473;28;20234;-63
2022/05/24 12:18:45;;;;;;;0.52;0.43;;;24.30;78.90;;;;;;5013392;28;20576;-64
2022/05/24 12:21:40;;;;;;;1.25;0.47;;;24.20;77.20;;;;;;5013938;28;20301;-61
2022/05/24 12:24:39;;;;;;;0.55;0.40;;;24.10;78.80;;;;;;5013876;28;20210;-63
2022/05/24 12:27:16;;;;;;;0.93;0.55;;;23.90;80.60;;;;;;5003469;28;20227;-63
2022/05/24 12:29:45;;;;;;;1.25;1.15;;;23.60;80.40;;;;;;5013687;28;20226;-59
2022/05/24 12:32:12;;;;;;;1.45;0.60;;;23.50;79.40;;;;;;5013263;28;20211;-60
2022/05/24 12:34:38;;;;;;;2.33;0.50;;;23.70;79.90;;;;;;5012408;28;20215;-62
2022/05/24 12:37:19;;;;;;;3.67;0.50;;;23.90;79.20;;;;;;5013373;28;20235;-60
2022/05/24 12:40:13;;;;;;;1.40;0.70;;;24.20;78.70;;;;;;5013338;28;20213;-61
2022/05/24 12:42:45;;;;;;;0.65;0.35;;;24.60;78.00;;;;;;5013051;28;20298;-62
2022/05/24 12:45:13;;;;;;;1.70;0.73;;;25.00;76.40;;;;;;5013383;28;20217;-60
2022/05/24 12:47:41;;;;;;;3.60;0.40;;;25.20;76.60;;;;;;5013456;28;20242;-62
2022/05/24 12:50:09;;;;;;;1.95;0.50;;;25.40;75.90;;;;;;5011574;28;20226;-63
2022/05/24 12:52:42;;;;;;;0.95;0.50;;;25.40;74.10;;;;;;5012782;28;20682;-64
2022/05/24 12:55:54;;;;;;;3.70;0.40;;;25.50;74.40;;;;;;5012819;28;20218;-63
2022/05/24 12:58:14;;;;;;;0.95;0.40;;;25.50;73.70;;;;;;5012796;28;20215;-61
2022/05/24 13:00:42;;;;;;;1.35;0.60;;;25.40;72.50;;;;;;5013263;28;20211;-61
2022/05/24 13:03:08;;;;;;;2.13;0.57;;;25.30;72.50;;;;;;5013158;28;20298;-61
2022/05/24 13:05:39;;;;;;;4.50;1.00;;;25.10;73.80;;;;;;5012800;28;20218;-61
2022/05/24 13:08:08;;;;;;;2.00;0.40;;;25.20;74.80;;;;;;5012319;28;20217;-62
2022/05/24 13:10:37;;;;;;;2.92;0.57;;;24.90;75.60;;;;;;5013335;28;20533;-62
2022/05/24 13:13:07;;;;;;;1.08;0.55;;;24.60;76.20;;;;;;5012765;28;20601;-62
2022/05/24 13:15:37;;;;;;;1.10;0.43;;;24.60;78.00;;;;;;5013012;28;20269;-62
2022/05/24 13:18:12;;;;;;;1.20;0.73;;;24.60;77.60;;;;;;5013488;28;20200;-62
2022/05/24 13:20:42;;;;;;;1.15;0.60;;;24.60;78.10;;;;;;5012463;28;20593;-61
2022/05/24 13:23:22;;;;;;;1.95;0.40;;;24.50;78.00;;;;;;5013015;28;20199;-61
2022/05/24 13:25:52;;;;;;;1.23;0.50;;;24.30;78.20;;;;;;5012884;28;20318;-62
2022/05/24 13:28:40;;;;;;;1.10;0.55;;;24.20;79.10;;;;;;5012407;28;20235;-61
2022/05/24 13:33:55;;;;;;;5.68;0.70;;;23.60;78.60;;;;;;5012650;28;20202;-62
2022/05/24 13:36:24;;;;;;;3.65;0.40;;;23.40;81.40;;;;;;5012132;28;20734;-62
2022/05/24 13:39:10;;;;;;;5.75;0.70;;;23.30;82.30;;;;;;5012215;28;20285;-62
2022/05/24 13:41:39;;;;;;;2.47;0.70;;;23.20;83.80;;;;;;5012084;28;20674;-62
2022/05/24 13:44:09;;;;;;;1.30;0.50;;;23.20;86.00;;;;;;5011528;28;20683;-62
2022/05/24 13:47:05;;;;;;;1.63;0.70;;;23.20;86.10;;;;;;5011819;28;20237;-63
2022/05/24 13:49:36;;;;;;;1.30;0.32;;;23.30;84.30;;;;;;4966526;28;20238;-63
2022/05/24 13:52:29;;;;;;;2.25;0.50;;;23.60;83.70;;;;;;5011921;28;20211;-63
2022/05/24 13:55:22;;;;;;;1.20;0.52;;;23.90;83.30;;;;;;5011896;28;20675;-63